Time;durP1;ratioP1;P1;durP2;ratioP2;P2;SDS_P1;SDS_P2;PMS_P1;PMS_P2;Temp;Humidity;BMP_temperature;BMP_pressure;BME280_temperature;BME280_humidity;BME280_pressure;Samples;Min_cycle;Max_cycle;Signal;HPM_P1;HPM_P2
2021/12/06 00:01:00;;;;;;;49.70;21.85;;;;;;;6.48;100.00;96272.97;5025231;28;20064;-64
2021/12/06 00:03:35;;;;;;;46.63;20.83;;;;;;;5.75;100.00;96173.25;5025450;28;20551;-63
2021/12/06 00:06:02;;;;;;;43.22;20.52;;;;;;;6.27;100.00;96256.06;5024239;28;20637;-63
2021/12/06 00:08:30;;;;;;;47.17;19.35;;;;;;;6.58;100.00;96294.41;5025554;28;20057;-63
2021/12/06 00:10:56;;;;;;;47.22;20.17;;;;;;;6.46;100.00;96234.03;5023846;28;20067;-64
2021/12/06 00:13:24;;;;;;;42.65;18.85;;;;;;;6.73;100.00;96271.53;5023626;28;20186;-63
2021/12/06 00:15:51;;;;;;;39.15;17.88;;;;;;;6.63;100.00;96236.34;5025052;28;20057;-64
2021/12/06 00:18:18;;;;;;;51.08;20.35;;;;;;;6.83;100.00;96262.66;5023311;28;20059;-63
2021/12/06 00:20:46;;;;;;;67.88;21.90;;;;;;;6.73;100.00;96249.50;5023663;28;20052;-63
2021/12/06 00:23:13;;;;;;;45.30;19.92;;;;;;;6.74;100.00;96215.31;5024709;28;20061;-63
2021/12/06 00:25:40;;;;;;;48.47;20.00;;;;;;;6.91;100.00;96238.78;5025137;28;20377;-64
2021/12/06 00:28:07;;;;;;;56.92;21.38;;;;;;;7.06;100.00;96244.22;5024608;28;20513;-64
2021/12/06 00:30:34;;;;;;;50.88;21.35;;;;;;;6.98;100.00;96241.69;5025052;28;20128;-64
2021/12/06 00:33:01;;;;;;;43.33;20.27;;;;;;;7.07;100.00;96240.28;5024560;28;20148;-64
2021/12/06 00:35:29;;;;;;;39.33;17.77;;;;;;;6.75;100.00;96177.59;5024932;28;20057;-65
2021/12/06 00:37:58;;;;;;;40.10;17.95;;;;;;;6.97;100.00;96213.34;5024638;28;20083;-64
2021/12/06 00:40:30;;;;;;;43.00;18.25;;;;;;;7.23;100.00;96263.00;5025136;28;20060;-64
2021/12/06 00:42:57;;;;;;;49.45;21.00;;;;;;;7.00;100.00;96234.63;5023221;28;20087;-64
2021/12/06 00:45:24;;;;;;;45.72;20.23;;;;;;;7.37;100.00;96249.44;5025118;28;20049;-64
2021/12/06 00:47:51;;;;;;;50.70;21.42;;;;;;;7.38;100.00;96251.03;5024397;28;20045;-63
2021/12/06 00:50:20;;;;;;;44.00;19.90;;;;;;;7.39;100.00;96247.13;5023296;28;20457;-64
2021/12/06 00:52:47;;;;;;;43.00;20.88;;;;;;;7.45;100.00;96244.84;5024657;28;20054;-63
2021/12/06 00:55:15;;;;;;;49.10;21.23;;;;;;;6.94;100.00;96186.56;5023140;28;20084;-63
2021/12/06 00:57:42;;;;;;;52.90;24.73;;;;;;;7.47;100.00;96253.53;5024495;28;20065;-64
2021/12/06 01:00:16;;;;;;;59.83;25.23;;;;;;;7.51;100.00;96255.19;5024821;28;20053;-64
2021/12/06 01:02:43;;;;;;;52.78;22.90;;;;;;;7.51;100.00;96241.41;5024582;28;20049;-64
2021/12/06 01:05:11;;;;;;;49.30;21.95;;;;;;;6.80;100.00;96114.75;5024783;28;20144;-64
2021/12/06 01:07:37;;;;;;;49.30;21.17;;;;;;;7.03;100.00;96156.03;5024145;28;20057;-63
2021/12/06 01:10:07;;;;;;;46.00;19.40;;;;;;;7.52;100.00;96234.72;5024454;28;20049;-63
2021/12/06 01:12:34;;;;;;;45.95;19.33;;;;;;;7.16;100.00;96187.72;5024139;28;20049;-63
2021/12/06 01:15:03;;;;;;;41.28;17.90;;;;;;;7.51;100.00;96233.13;5024539;28;20057;-64
2021/12/06 01:17:30;;;;;;;45.40;18.38;;;;;;;6.99;100.00;96155.97;5024642;28;20507;-63
2021/12/06 01:19:57;;;;;;;46.00;18.98;;;;;;;7.42;100.00;96240.88;5028729;28;20049;-63
2021/12/06 01:22:33;;;;;;;47.10;20.42;;;;;;;7.38;100.00;96212.47;5027983;28;20084;-64
2021/12/06 01:25:04;;;;;;;40.42;18.13;;;;;;;7.28;100.00;96204.03;5028422;28;20059;-65
2021/12/06 01:27:52;;;;;;;52.30;20.08;;;;;;;7.55;100.00;96244.22;5028416;28;20080;-63
2021/12/06 01:41:48;;;;;;;42.30;19.73;;;;;;;7.59;100.00;96245.84;5027963;28;20575;-64
2021/12/06 01:44:26;;;;;;;47.15;20.38;;;;;;;7.88;100.00;96246.28;5027937;28;20057;-64
2021/12/06 01:47:05;;;;;;;47.25;21.10;;;;;;;7.35;100.00;96185.66;5026471;28;20059;-63
2021/12/06 01:49:36;;;;;;;50.95;20.98;;;;;;;7.93;100.00;96237.69;5027637;28;20439;-63
2021/12/06 01:52:07;;;;;;;44.78;19.23;;;;;;;7.90;100.00;96236.47;5027661;28;20474;-63
2021/12/06 01:54:35;;;;;;;39.60;18.65;;;;;;;7.32;100.00;96141.53;5027786;28;20504;-63
2021/12/06 01:57:02;;;;;;;52.00;21.88;;;;;;;7.86;100.00;96226.53;5027629;28;20064;-63
2021/12/06 01:59:29;;;;;;;63.67;27.20;;;;;;;7.03;100.00;96154.09;5026084;28;20053;-63
2021/12/06 02:01:56;;;;;;;69.07;32.00;;;;;;;7.81;100.00;96243.44;5027913;28;20049;-64
2021/12/06 02:04:24;;;;;;;65.30;26.90;;;;;;;7.85;100.00;96234.03;5027875;28;20057;-63
2021/12/06 02:06:51;;;;;;;54.58;27.70;;;;;;;7.80;100.00;96228.03;5027676;28;20056;-62
2021/12/06 02:09:19;;;;;;;46.67;19.67;;;;;;;7.51;100.00;96186.28;5027504;28;20054;-65
2021/12/06 02:11:46;;;;;;;37.50;16.77;;;;;;;5.76;100.00;95906.41;5027171;28;20056;-62
2021/12/06 02:19:38;;;;;;;33.33;15.55;;;;;;;7.90;100.00;96221.91;5027468;28;20045;-64
2021/12/06 02:22:07;;;;;;;35.00;14.77;;;;;;;7.86;100.00;96212.75;5027673;28;20084;-63
2021/12/06 02:24:37;;;;;;;28.88;12.38;;;;;;;7.80;100.00;96206.00;5025810;28;20053;-63
2021/12/06 02:27:09;;;;;;;30.77;13.65;;;;;;;7.81;100.00;96202.09;5025770;28;20053;-63
2021/12/06 02:29:37;;;;;;;33.28;13.20;;;;;;;7.82;100.00;96215.50;5026337;28;20060;-64
2021/12/06 02:32:09;;;;;;;29.38;13.15;;;;;;;7.72;100.00;96211.41;5026978;28;20057;-63
2021/12/06 02:34:39;;;;;;;28.98;12.38;;;;;;;7.79;100.00;96229.22;5025532;28;20057;-63
2021/12/06 02:37:06;;;;;;;34.70;14.35;;;;;;;7.43;100.00;96165.31;5025494;28;20057;-63
2021/12/06 02:39:33;;;;;;;29.08;12.18;;;;;;;7.76;100.00;96207.91;5026771;28;20065;-63
2021/12/06 02:42:00;;;;;;;32.95;12.38;;;;;;;7.85;100.00;96208.44;5026726;28;20059;-64
2021/12/06 02:44:28;;;;;;;27.30;11.32;;;;;;;7.93;100.00;96210.13;5027007;28;20053;-63
2021/12/06 02:46:55;;;;;;;26.80;12.48;;;;;;;7.63;100.00;96175.03;5026672;28;20061;-63
2021/12/06 02:49:23;;;;;;;29.08;12.75;;;;;;;7.98;100.00;96194.06;5026713;28;20049;-63
2021/12/06 02:51:53;;;;;;;26.67;12.43;;;;;;;8.05;100.00;96190.56;5026819;28;20052;-63
2021/12/06 02:54:22;;;;;;;25.83;12.13;;;;;;;7.94;100.00;96184.13;5026244;28;20058;-63
2021/12/06 02:57:07;;;;;;;26.13;11.45;;;;;;;7.39;100.00;96120.41;5026660;28;20057;-64
2021/12/06 02:59:35;;;;;;;29.02;13.73;;;;;;;7.12;100.00;96061.00;5026540;28;20054;-63
2021/12/06 03:02:10;;;;;;;38.05;15.43;;;;;;;7.83;100.00;96194.22;5026449;28;20045;-63
2021/12/06 03:04:39;;;;;;;32.88;16.10;;;;;;;7.60;100.00;96170.28;5026487;28;20140;-63
2021/12/06 03:07:07;;;;;;;41.80;18.45;;;;;;;7.62;100.00;96183.69;5026153;28;20447;-63
2021/12/06 03:09:38;;;;;;;41.88;17.08;;;;;;;7.59;100.00;96189.94;5020925;28;20070;-63
2021/12/06 03:12:14;;;;;;;37.65;18.77;;;;;;;7.56;100.00;96197.00;5006702;28;20089;-63
2021/12/06 03:14:48;;;;;;;41.60;18.55;;;;;;;7.26;100.00;96143.81;5006600;28;20061;-63
2021/12/06 03:17:19;;;;;;;39.80;18.55;;;;;;;7.52;100.00;96192.59;5006315;28;20065;-64
2021/12/06 03:19:46;;;;;;;42.63;18.77;;;;;;;7.51;100.00;96191.81;5006627;28;20050;-63
2021/12/06 03:22:15;;;;;;;41.15;18.00;;;;;;;7.57;100.00;96204.09;5006200;28;20073;-64
2021/12/06 03:24:43;;;;;;;43.42;17.83;;;;;;;7.61;100.00;96193.94;5005988;28;20526;-65
2021/12/06 03:27:11;;;;;;;50.63;19.00;;;;;;;7.70;100.00;96197.22;5006573;28;20180;-63
2021/12/06 03:29:38;;;;;;;44.60;19.83;;;;;;;7.54;100.00;96174.53;5006095;28;20053;-64
2021/12/06 03:32:05;;;;;;;43.78;17.98;;;;;;;7.29;100.00;96132.06;5006381;28;20050;-64
2021/12/06 03:34:33;;;;;;;47.58;19.85;;;;;;;7.47;100.00;96160.66;5006424;28;20070;-63
2021/12/06 03:37:02;;;;;;;47.35;17.55;;;;;;;7.41;100.00;96142.84;5006067;28;20064;-63
2021/12/06 03:39:36;;;;;;;38.13;17.25;;;;;;;7.94;100.00;96206.19;5006187;28;20050;-63
2021/12/06 03:42:07;;;;;;;35.85;16.50;;;;;;;7.67;100.00;96164.06;5005872;28;20562;-63
2021/12/06 03:44:34;;;;;;;33.78;16.05;;;;;;;7.41;100.00;96151.09;5005955;28;20064;-63
2021/12/06 03:47:08;;;;;;;37.40;16.00;;;;;;;7.86;100.00;96188.75;5005640;28;20358;-63
2021/12/06 03:49:35;;;;;;;37.40;18.63;;;;;;;8.00;100.00;96199.97;5005547;28;20504;-64
2021/12/06 03:52:04;;;;;;;52.72;25.05;;;;;;;8.00;100.00;96210.22;5004426;28;20053;-64
2021/12/06 03:54:31;;;;;;;51.60;22.23;;;;;;;7.61;100.00;96160.88;5005875;28;20061;-64
2021/12/06 03:56:59;;;;;;;48.63;21.48;;;;;;;7.70;100.00;96183.41;5004263;28;20050;-64
2021/12/06 03:59:26;;;;;;;43.33;22.35;;;;;;;7.93;100.00;96207.34;5005342;28;20462;-64
2021/12/06 04:01:53;;;;;;;50.92;22.85;;;;;;;7.87;100.00;96217.13;5005508;28;20038;-63
2021/12/06 04:04:21;;;;;;;56.67;23.98;;;;;;;7.86;100.00;96215.53;5005763;28;20056;-65
2021/12/06 04:06:48;;;;;;;60.58;23.52;;;;;;;7.99;100.00;96212.19;5005429;28;20045;-63
2021/12/06 04:09:15;;;;;;;45.92;21.52;;;;;;;8.05;100.00;96202.41;5018639;28;20111;-63
2021/12/06 04:11:43;;;;;;;49.90;23.10;;;;;;;7.40;100.00;96094.44;5025031;28;20046;-64
2021/12/06 04:14:11;;;;;;;59.55;27.40;;;;;;;7.93;100.00;96185.31;5025012;28;20493;-63
2021/12/06 04:16:38;;;;;;;62.47;27.80;;;;;;;8.04;100.00;96200.03;5024543;28;20054;-63
2021/12/06 04:19:06;;;;;;;56.47;25.13;;;;;;;8.02;100.00;96192.13;5025177;28;20055;-64
2021/12/06 04:21:35;;;;;;;48.08;21.52;;;;;;;8.06;100.00;96186.66;5024898;28;20091;-64
2021/12/06 04:24:02;;;;;;;57.95;23.10;;;;;;;7.60;100.00;96131.69;5025189;28;20057;-64
2021/12/06 04:26:29;;;;;;;45.95;18.35;;;;;;;8.03;100.00;96181.91;5024986;28;20053;-64
2021/12/06 04:29:00;;;;;;;42.28;17.67;;;;;;;7.99;100.00;96192.06;5025256;28;20046;-64
2021/12/06 04:31:31;;;;;;;46.88;19.73;;;;;;;7.63;100.00;96135.69;5025017;28;20057;-64
2021/12/06 04:33:58;;;;;;;45.38;19.73;;;;;;;7.81;100.00;96177.28;5025202;28;20148;-64
2021/12/06 04:36:37;;;;;;;42.92;18.30;;;;;;;7.63;100.00;96180.56;5024693;28;20068;-63
2021/12/06 04:39:08;;;;;;;35.03;15.50;;;;;;;6.59;100.00;96009.84;5024945;28;20046;-63
2021/12/06 04:41:35;;;;;;;37.10;15.82;;;;;;;7.36;100.00;96154.22;5024892;28;20057;-64
2021/12/06 04:44:03;;;;;;;33.92;13.55;;;;;;;7.59;100.00;96185.25;5025020;28;20063;-63
2021/12/06 04:46:30;;;;;;;25.70;11.02;;;;;;;7.57;100.00;96187.56;5024560;28;20492;-63
2021/12/06 04:48:56;;;;;;;25.15;10.88;;;;;;;7.44;100.00;96177.94;5024725;28;20468;-64
2021/12/06 04:51:24;;;;;;;23.80;9.93;;;;;;;7.52;100.00;96179.59;5024611;28;20046;-63
2021/12/06 04:53:51;;;;;;;26.27;10.23;;;;;;;7.58;100.00;96180.91;5024915;28;20151;-63
2021/12/06 04:56:29;;;;;;;35.53;13.18;;;;;;;7.67;100.00;96180.63;5024325;28;20504;-63
2021/12/06 04:59:15;;;;;;;30.85;12.75;;;;;;;7.77;100.00;96184.69;5024779;28;20579;-63
2021/12/06 05:01:43;;;;;;;24.38;10.93;;;;;;;7.69;100.00;96198.38;5024305;28;20080;-64
2021/12/06 05:04:17;;;;;;;24.33;10.55;;;;;;;7.75;100.00;96204.34;5024968;28;20057;-64
2021/12/06 05:06:47;;;;;;;130.20;34.05;;;;;;;7.81;100.00;96210.34;5024556;28;20053;-64
2021/12/06 05:09:25;;;;;;;92.80;30.02;;;;;;;7.77;100.00;96206.72;5024586;28;20497;-63
2021/12/06 05:11:53;;;;;;;63.15;21.00;;;;;;;7.67;100.00;96203.47;5024132;28;20487;-62
2021/12/06 05:14:20;;;;;;;56.63;19.25;;;;;;;7.80;100.00;96200.47;5022912;28;20051;-62
2021/12/06 05:16:47;;;;;;;58.10;17.58;;;;;;;6.79;99.96;96041.63;5022626;28;20053;-62
2021/12/06 05:19:13;;;;;;;52.75;14.95;;;;;;;7.64;100.00;96187.69;5024591;28;20060;-63
2021/12/06 05:21:40;;;;;;;26.13;9.95;;;;;;;6.90;100.00;96075.63;5024160;28;20057;-63
2021/12/06 05:24:08;;;;;;;25.83;11.30;;;;;;;7.69;100.00;96198.38;5024499;28;20054;-63
2021/12/06 05:26:36;;;;;;;31.33;11.25;;;;;;;7.63;100.00;96186.06;5024057;28;20049;-63
2021/12/06 05:29:07;;;;;;;28.10;10.60;;;;;;;7.58;100.00;96150.59;5024546;28;20496;-62
2021/12/06 05:31:39;;;;;;;40.25;12.63;;;;;;;7.18;100.00;96136.63;5024047;28;20417;-63
2021/12/06 05:34:14;;;;;;;53.75;18.38;;;;;;;7.28;100.00;96102.94;5024740;28;20053;-63
2021/12/06 05:36:42;;;;;;;46.00;15.25;;;;;;;7.66;100.00;96152.28;5023648;28;20136;-63
2021/12/06 05:39:09;;;;;;;49.33;16.02;;;;;;;7.77;99.16;96173.66;5024162;28;20058;-63
2021/12/06 05:41:36;;;;;;;48.65;17.88;;;;;;;7.71;98.03;96190.50;5019672;28;20133;-63
2021/12/06 05:44:04;;;;;;;46.88;18.38;;;;;;;8.09;97.93;96194.97;5023328;28;20065;-64
2021/12/06 05:46:30;;;;;;;46.35;18.73;;;;;;;8.05;98.95;96185.06;5021838;28;20049;-64
2021/12/06 05:48:57;;;;;;;44.78;17.98;;;;;;;8.19;98.81;96226.63;5024217;28;20100;-65
2021/12/06 05:51:24;;;;;;;47.00;19.83;;;;;;;7.85;97.24;96153.28;5024068;28;20052;-64
2021/12/06 05:53:51;;;;;;;45.25;18.80;;;;;;;8.14;98.02;96193.84;5022801;28;20456;-64
2021/12/06 05:56:18;;;;;;;50.85;17.70;;;;;;;8.15;97.92;96200.94;5022426;28;20452;-66
2021/12/06 05:58:44;;;;;;;47.42;19.90;;;;;;;8.01;97.63;96195.25;5023362;28;20067;-64
2021/12/06 06:01:11;;;;;;;42.55;14.98;;;;;;;8.26;97.19;96210.19;5024065;28;20050;-63
2021/12/06 06:03:43;;;;;;;62.08;23.63;;;;;;;7.67;97.85;96170.41;5024122;28;20123;-63
2021/12/06 06:06:10;;;;;;;62.28;24.02;;;;;;;7.82;97.34;96143.81;5027056;28;20946;-64
2021/12/06 06:08:39;;;;;;;49.45;21.30;;;;;;;8.05;96.52;96174.03;5025728;28;20049;-64
2021/12/06 06:11:05;;;;;;;50.88;20.83;;;;;;;8.08;97.09;96178.81;5027652;28;20045;-63
2021/12/06 06:13:32;;;;;;;52.13;22.50;;;;;;;8.34;97.75;96204.38;5026534;28;20465;-63
2021/12/06 06:16:01;;;;;;;47.45;19.65;;;;;;;8.42;97.31;96194.22;5025719;28;20135;-64
2021/12/06 06:18:29;;;;;;;43.58;17.35;;;;;;;8.41;96.31;96192.63;5026960;28;20053;-63
2021/12/06 06:20:56;;;;;;;49.42;22.13;;;;;;;8.48;95.67;96200.97;5025739;28;20045;-63
2021/12/06 06:23:23;;;;;;;40.63;15.88;;;;;;;8.53;95.20;96222.72;5027041;28;20524;-64
2021/12/06 06:25:50;;;;;;;34.10;14.73;;;;;;;8.19;95.01;96163.97;5027283;28;20083;-63
2021/12/06 06:28:17;;;;;;;37.47;16.30;;;;;;;8.15;95.13;96167.84;5025483;28;20050;-63
2021/12/06 06:30:44;;;;;;;66.03;23.90;;;;;;;8.44;95.46;96197.41;5027016;28;20054;-64
2021/12/06 06:33:10;;;;;;;59.67;25.35;;;;;;;8.56;95.43;96224.72;5026935;28;20057;-63
2021/12/06 06:35:38;;;;;;;46.38;18.73;;;;;;;8.60;95.44;96218.06;5027012;28;20053;-64
2021/12/06 06:38:04;;;;;;;42.63;18.05;;;;;;;8.58;96.37;96214.13;5026768;28;20524;-64
2021/12/06 06:40:31;;;;;;;51.22;21.00;;;;;;;8.62;95.70;96209.41;5026818;28;20488;-65
2021/12/06 06:42:58;;;;;;;50.20;22.23;;;;;;;8.66;95.51;96226.81;5026692;28;20049;-63
2021/12/06 06:45:25;;;;;;;54.92;21.40;;;;;;;8.13;95.52;96126.06;5027237;28;20405;-63
2021/12/06 06:47:52;;;;;;;38.58;18.27;;;;;;;8.48;93.73;96170.63;5025029;28;20049;-64
2021/12/06 06:50:20;;;;;;;40.20;16.98;;;;;;;8.75;93.38;96202.47;5027129;28;20402;-63
2021/12/06 06:52:49;;;;;;;38.42;16.58;;;;;;;9.03;93.82;96213.78;5026420;28;20132;-63
2021/12/06 06:55:16;;;;;;;53.20;24.20;;;;;;;8.81;93.08;96173.34;5016063;28;20413;-65
2021/12/06 06:57:45;;;;;;;55.55;22.83;;;;;;;9.10;92.69;96219.38;5006245;28;20430;-64
2021/12/06 07:00:19;;;;;;;37.17;16.13;;;;;;;9.11;92.74;96209.91;5007630;28;20570;-66
2021/12/06 07:02:46;;;;;;;35.25;14.63;;;;;;;8.49;92.31;96133.56;5024539;28;20050;-67
2021/12/06 07:05:14;;;;;;;32.80;13.30;;;;;;;9.15;91.52;96205.22;5023711;28;20734;-68
2021/12/06 07:07:41;;;;;;;29.60;11.93;;;;;;;8.26;91.91;96168.81;5025039;28;20067;-68
2021/12/06 07:10:09;;;;;;;24.30;12.10;;;;;;;9.08;91.47;96199.63;5023955;28;20045;-64
2021/12/06 07:12:44;;;;;;;26.00;11.65;;;;;;;9.14;91.82;96206.38;5022644;28;20056;-64
2021/12/06 07:15:14;;;;;;;33.88;12.10;;;;;;;9.24;91.51;96211.22;5022323;28;20069;-66
2021/12/06 07:17:42;;;;;;;29.98;11.93;;;;;;;8.42;91.45;96083.84;5022355;28;20054;-62
2021/12/06 07:20:11;;;;;;;33.17;12.75;;;;;;;9.02;91.45;96168.00;5018960;28;20484;-69
2021/12/06 07:22:38;;;;;;;33.42;13.68;;;;;;;8.36;90.64;96118.47;5020671;28;20057;-70
2021/12/06 07:25:06;;;;;;;42.33;16.98;;;;;;;7.09;90.56;95847.00;5022213;28;20084;-64
2021/12/06 07:27:33;;;;;;;29.13;13.10;;;;;;;8.62;90.84;96115.56;5021828;28;20144;-65
2021/12/06 07:30:00;;;;;;;29.85;12.07;;;;;;;8.48;91.62;96121.75;5022174;28;20122;-66
2021/12/06 07:32:27;;;;;;;38.08;14.48;;;;;;;8.63;91.11;96117.94;5020082;28;20067;-68
2021/12/06 07:34:55;;;;;;;28.05;11.88;;;;;;;9.20;90.78;96185.50;5021982;28;20436;-64
2021/12/06 07:37:22;;;;;;;27.95;12.65;;;;;;;9.06;91.77;96152.25;5022157;28;20064;-65
2021/12/06 07:39:49;;;;;;;34.75;16.52;;;;;;;9.22;92.01;96177.66;5020413;28;20053;-64
2021/12/06 07:42:15;;;;;;;31.38;13.05;;;;;;;8.87;91.81;96125.66;5021823;28;20089;-68
2021/12/06 07:44:43;;;;;;;31.38;13.00;;;;;;;8.84;90.15;96095.25;5017140;28;20045;-64
2021/12/06 07:47:12;;;;;;;23.83;9.35;;;;;;;9.45;89.59;96186.53;5020852;28;20491;-62
2021/12/06 07:49:40;;;;;;;27.80;11.38;;;;;;;9.61;89.88;96187.00;5021686;28;20424;-64
2021/12/06 07:52:25;;;;;;;29.02;10.45;;;;;;;9.82;88.62;96178.84;5019862;28;20589;-68
2021/12/06 07:54:57;;;;;;;35.85;12.88;;;;;;;9.99;88.98;96172.63;5020979;28;20435;-67
2021/12/06 07:57:25;;;;;;;32.50;14.07;;;;;;;10.22;88.17;96178.72;5021614;28;20144;-64
2021/12/06 07:59:52;;;;;;;35.13;14.43;;;;;;;9.49;86.33;96049.13;5018975;28;20061;-68
2021/12/06 08:02:18;;;;;;;30.20;12.65;;;;;;;10.21;84.84;96179.88;5021355;28;20049;-62
2021/12/06 08:04:48;;;;;;;39.20;14.95;;;;;;;9.77;85.44;96104.56;5021613;28;20090;-62
2021/12/06 08:07:15;;;;;;;38.67;14.43;;;;;;;9.04;84.66;95999.94;5020991;28;20075;-69
2021/12/06 08:12:27;;;;;;;37.70;16.02;;;;;;;9.61;83.99;96051.53;5021856;28;20525;-64
2021/12/06 08:14:54;;;;;;;22.10;10.80;;;;;;;9.74;83.51;96027.91;5021063;28;20061;-62
2021/12/06 08:17:25;;;;;;;22.05;10.32;;;;;;;10.58;82.52;96185.97;5021066;28;20155;-64
2021/12/06 08:19:52;;;;;;;28.33;11.25;;;;;;;10.33;81.83;96088.19;5019206;28;20102;-63
2021/12/06 08:22:18;;;;;;;24.38;10.82;;;;;;;11.20;81.89;96189.25;5019350;28;20432;-62
2021/12/06 08:27:31;;;;;;;27.73;11.80;;;;;;;10.97;79.16;96146.47;5020056;28;20093;-64
2021/12/06 08:29:58;;;;;;;28.35;11.25;;;;;;;10.94;78.41;96122.31;5020446;28;20111;-68
2021/12/06 08:32:24;;;;;;;27.17;11.27;;;;;;;11.48;77.36;96180.13;5020063;28;20551;-64
2021/12/06 08:34:51;;;;;;;30.02;11.88;;;;;;;10.54;76.84;96010.69;5020142;28;20054;-64
2021/12/06 08:37:18;;;;;;;27.25;10.27;;;;;;;11.09;76.19;96096.97;5021120;28;20057;-67
2021/12/06 08:39:45;;;;;;;31.92;13.00;;;;;;;10.72;77.09;96087.47;5020786;28;20059;-66
2021/12/06 08:42:11;;;;;;;31.50;11.63;;;;;;;11.06;80.33;96172.59;5018561;28;20522;-65
2021/12/06 08:44:38;;;;;;;32.95;12.13;;;;;;;11.10;78.57;96142.09;5018030;28;20053;-62
2021/12/06 08:47:05;;;;;;;35.13;14.32;;;;;;;11.84;77.30;96145.63;5020175;28;20582;-63
2021/12/06 08:49:33;;;;;;;28.10;11.57;;;;;;;11.12;76.85;96073.22;5016796;28;20057;-64
2021/12/06 08:52:00;;;;;;;29.35;12.27;;;;;;;10.43;76.77;95931.63;5018230;28;20053;-62
2021/12/06 08:54:29;;;;;;;29.58;11.85;;;;;;;11.66;73.71;96058.88;5019662;28;20825;-62
2021/12/06 08:56:58;;;;;;;27.27;10.25;;;;;;;12.51;72.04;96110.06;5018539;28;20117;-65
2021/12/06 08:59:25;;;;;;;21.15;9.40;;;;;;;12.44;71.45;96098.22;5018328;28;20467;-71
2021/12/06 09:01:56;;;;;;;20.77;9.98;;;;;;;12.82;71.89;96159.09;5016990;28;20049;-68
2021/12/06 09:04:44;;;;;;;23.52;9.50;;;;;;;12.95;71.70;96156.63;5020935;28;20501;-66
2021/12/06 09:07:13;;;;;;;26.30;9.70;;;;;;;11.92;73.61;96105.56;5018291;28;20140;-67
2021/12/06 09:09:46;;;;;;;23.45;8.75;;;;;;;11.86;74.74;96096.88;5018052;28;20411;-64
2021/12/06 09:12:15;;;;;;;;;;;;;;;12.81;74.93;96140.84;5017122;28;20579;-61
2021/12/06 09:14:43;;;;;;;22.08;8.60;;;;;;;12.82;72.47;96053.47;5019363;28;19936;-66
2021/12/06 09:17:10;;;;;;;23.63;8.80;;;;;;;13.06;70.12;96074.78;5020279;28;20053;-64
2021/12/06 09:19:37;;;;;;;24.23;8.40;;;;;;;13.35;70.23;96081.66;5019327;28;20053;-62
2021/12/06 09:22:04;;;;;;;18.92;7.97;;;;;;;13.07;70.17;96087.47;5019657;28;20540;-64
2021/12/06 09:24:32;;;;;;;19.60;8.35;;;;;;;13.21;72.22;96120.75;5021017;28;20053;-64
2021/12/06 09:27:00;;;;;;;19.10;9.25;;;;;;;13.84;70.69;96118.53;5019900;28;20058;-62
2021/12/06 09:29:28;;;;;;;23.08;9.40;;;;;;;13.91;69.71;96102.53;5018874;28;20072;-66
2021/12/06 09:31:59;;;;;;;24.70;10.40;;;;;;;13.92;70.45;96103.34;5017575;28;20092;-65
2021/12/06 09:34:28;;;;;;;20.92;9.15;;;;;;;13.66;69.02;96086.13;5018315;28;20057;-64
2021/12/06 09:36:55;;;;;;;22.25;8.57;;;;;;;13.40;71.22;96045.03;5019649;28;20057;-61
2021/12/06 09:39:22;;;;;;;18.60;7.38;;;;;;;13.79;70.00;96074.44;5022528;28;20515;-62
2021/12/06 09:41:50;;;;;;;17.77;9.27;;;;;;;13.68;70.36;96049.53;5023758;28;20053;-62
2021/12/06 09:44:17;;;;;;;20.13;8.25;;;;;;;13.83;70.15;96089.13;5022621;28;20617;-63
2021/12/06 09:46:44;;;;;;;18.48;7.75;;;;;;;13.84;69.33;96074.00;5023522;28;20445;-64
2021/12/06 09:49:15;;;;;;;18.85;7.95;;;;;;;13.87;70.44;96084.31;5024217;28;20041;-66
2021/12/06 09:51:50;;;;;;;20.17;6.93;;;;;;;13.63;70.82;96059.13;5020862;28;20103;-65
2021/12/06 09:54:19;;;;;;;18.88;9.80;;;;;;;14.01;70.69;96084.94;5024008;28;20068;-65
2021/12/06 09:56:47;;;;;;;23.73;8.25;;;;;;;13.50;69.14;95944.00;5019077;28;20084;-64
2021/12/06 09:59:18;;;;;;;25.85;11.10;;;;;;;14.66;67.97;96083.72;5020941;28;20533;-64
2021/12/06 10:01:56;;;;;;;25.13;10.13;;;;;;;13.70;67.75;95925.44;5020077;28;20048;-65
2021/12/06 10:04:26;;;;;;;17.85;8.55;;;;;;;14.05;69.11;96006.94;5023886;28;20083;-68
2021/12/06 10:06:54;;;;;;;21.42;7.80;;;;;;;14.69;69.25;96052.22;5022123;28;20592;-69
2021/12/06 10:09:22;;;;;;;19.92;7.25;;;;;;;13.74;70.13;95952.47;5021399;28;20069;-68
2021/12/06 10:11:50;;;;;;;17.65;8.90;;;;;;;14.59;68.78;96053.19;5019705;28;20140;-65
2021/12/06 10:14:18;;;;;;;18.63;7.88;;;;;;;14.65;67.76;96045.91;5020352;28;20504;-64
2021/12/06 10:16:46;;;;;;;19.15;9.00;;;;;;;14.44;68.91;96001.63;5019747;28;20060;-65
2021/12/06 10:19:15;;;;;;;27.08;10.55;;;;;;;14.90;68.91;96046.31;5023421;28;20049;-63
2021/12/06 10:21:43;;;;;;;27.70;11.63;;;;;;;13.26;67.38;95746.84;5022676;28;20050;-63
2021/12/06 10:24:14;;;;;;;33.45;13.70;;;;;;;14.36;68.86;95939.66;5018588;28;20475;-65
2021/12/06 10:26:41;;;;;;;35.92;13.65;;;;;;;14.60;69.01;95949.63;5021003;28;20063;-65
2021/12/06 10:29:20;;;;;;;26.65;12.73;;;;;;;15.08;68.83;96028.06;5023453;28;20056;-63
2021/12/06 10:31:50;;;;;;;22.92;12.20;;;;;;;14.71;68.94;96021.94;5022651;28;20438;-64
2021/12/06 10:34:24;;;;;;;24.70;11.75;;;;;;;13.99;72.45;96016.97;5019683;28;20080;-63
2021/12/06 10:36:55;;;;;;;30.38;13.57;;;;;;;13.43;73.71;95988.59;5018218;28;20064;-63
2021/12/06 10:39:23;;;;;;;28.10;12.13;;;;;;;14.05;72.56;96009.72;5020625;28;20064;-64
2021/12/06 10:41:52;;;;;;;26.20;11.90;;;;;;;11.59;70.88;95609.59;5022566;28;20091;-64
2021/12/06 10:44:19;;;;;;;26.85;12.68;;;;;;;13.45;70.60;95816.50;5022611;28;20063;-63
2021/12/06 10:46:50;;;;;;;27.15;11.70;;;;;;;14.67;70.15;95998.88;5018438;28;20053;-63
2021/12/06 10:49:20;;;;;;;25.42;11.88;;;;;;;14.47;71.34;95967.34;5021912;28;20493;-63
2021/12/06 10:51:47;;;;;;;23.95;10.43;;;;;;;14.51;70.84;95985.59;5021864;28;20061;-59
2021/12/06 10:54:21;;;;;;;23.35;11.23;;;;;;;12.83;71.46;95802.19;5019381;28;20094;-66
2021/12/06 10:56:52;;;;;;;21.92;10.70;;;;;;;13.81;72.47;95952.38;5020512;28;20107;-65
2021/12/06 10:59:23;;;;;;;23.08;11.10;;;;;;;13.68;74.45;95977.97;5020627;28;20524;-65
2021/12/06 11:01:53;;;;;;;24.00;10.68;;;;;;;13.88;74.65;95977.34;5021863;28;20058;-65
2021/12/06 11:04:24;;;;;;;22.75;10.32;;;;;;;14.01;74.62;95950.50;5017012;28;20049;-65
2021/12/06 11:06:53;;;;;;;27.98;10.85;;;;;;;14.34;73.63;95969.13;5021332;28;20538;-65
2021/12/06 11:09:26;;;;;;;26.48;10.63;;;;;;;13.45;76.25;95988.19;5020746;28;20057;-66
2021/12/06 11:11:57;;;;;;;30.60;10.85;;;;;;;13.60;76.39;95984.03;5020276;28;20515;-66
2021/12/06 11:14:30;;;;;;;22.48;10.77;;;;;;;13.93;75.04;95960.16;5020144;28;20734;-65
2021/12/06 11:17:00;;;;;;;27.83;11.13;;;;;;;13.64;76.66;95957.72;5021791;28;20069;-65
2021/12/06 11:19:31;;;;;;;37.78;21.42;;;;;;;14.04;76.18;95955.22;5022919;28;20041;-64
2021/12/06 11:22:00;;;;;;;27.60;11.18;;;;;;;12.88;76.63;95835.06;5020457;28;20068;-63
2021/12/06 11:24:30;;;;;;;24.80;10.52;;;;;;;13.55;78.00;95937.97;5019014;28;20054;-60
2021/12/06 11:26:59;;;;;;;28.23;11.05;;;;;;;12.92;77.39;95830.25;5019845;28;20041;-63
2021/12/06 11:29:38;;;;;;;21.98;9.95;;;;;;;14.11;76.11;95949.56;5020497;28;20056;-62
2021/12/06 11:32:25;;;;;;;23.25;11.02;;;;;;;14.42;73.97;95945.53;5020298;28;20050;-64
2021/12/06 11:35:00;;;;;;;21.52;9.65;;;;;;;14.44;73.93;95941.13;5021661;28;20623;-62
2021/12/06 11:37:46;;;;;;;19.52;8.95;;;;;;;14.56;73.63;95931.38;5021246;28;20064;-67
2021/12/06 11:40:19;;;;;;;23.10;10.23;;;;;;;14.87;72.79;95928.03;5019691;28;20460;-64
2021/12/06 11:42:56;;;;;;;25.45;10.35;;;;;;;14.86;71.79;95889.44;5019868;28;20053;-66
2021/12/06 11:45:48;;;;;;;16.25;8.32;;;;;;;14.83;70.80;95884.72;5019635;28;20057;-62
2021/12/06 11:48:18;;;;;;;17.77;7.22;;;;;;;15.15;69.97;95873.75;5020832;28;20144;-64
2021/12/06 11:50:49;;;;;;;18.40;7.57;;;;;;;15.54;68.75;95893.31;5017476;28;20073;-61